createdAt,value
2024-01-26T00:07:22.244Z,0
2024-01-26T00:20:26.083Z,0
2024-01-26T00:33:23.033Z,0
2024-01-26T00:46:22.236Z,0
2024-01-26T00:59:22.359Z,0
2024-01-26T01:12:22.419Z,0
2024-01-26T01:25:22.286Z,0.8
2024-01-26T01:38:22.312Z,0.8
2024-01-26T01:51:22.431Z,0.8
2024-01-26T02:04:23.385Z,0.8
2024-01-26T02:17:22.236Z,0.8
2024-01-26T02:30:22.470Z,0.8
2024-01-26T02:43:22.370Z,0.8
2024-01-26T02:56:22.333Z,0.2
2024-01-26T03:09:22.316Z,0
2024-01-26T03:22:22.318Z,0.2
2024-01-26T03:35:22.312Z,0
2024-01-26T03:48:22.397Z,0
2024-01-26T04:01:22.371Z,0
2024-01-26T04:14:22.459Z,0
2024-01-26T04:27:22.343Z,0
2024-01-26T04:40:22.363Z,0
2024-01-26T04:53:22.348Z,0
2024-01-26T05:06:22.793Z,0
2024-01-26T05:19:22.414Z,0
2024-01-26T05:32:22.452Z,0
2024-01-26T05:45:24.988Z,0
2024-01-26T05:58:22.400Z,0
2024-01-26T06:11:22.380Z,0
2024-01-26T06:24:22.553Z,0
2024-01-26T06:38:22.430Z,0.8
2024-01-26T06:52:22.635Z,0.8
2024-01-26T07:08:22.553Z,0.8
2024-01-26T07:22:22.483Z,0
2024-01-26T07:36:22.403Z,0
2024-01-26T07:50:22.413Z,0
2024-01-26T08:04:22.397Z,0
2024-01-26T08:18:22.522Z,0
2024-01-26T08:32:22.425Z,0
2024-01-26T08:46:22.450Z,0
2024-01-26T09:00:22.562Z,0
2024-01-26T09:14:22.444Z,0
2024-01-26T09:28:22.470Z,0
2024-01-26T09:42:22.653Z,0.8
2024-01-26T09:56:22.450Z,1.3
2024-01-26T10:10:22.455Z,1.3
2024-01-26T10:24:22.513Z,0.8
2024-01-26T10:38:22.453Z,0.8
2024-01-26T10:52:24.525Z,0.8
2024-01-26T11:06:22.549Z,0.4
2024-01-26T11:20:22.503Z,1.1
2024-01-26T11:34:22.533Z,0.8
2024-01-26T11:48:22.543Z,0.8
2024-01-26T12:02:22.506Z,0.4
2024-01-26T12:16:22.716Z,0.8
2024-01-26T12:30:22.633Z,0.9
2024-01-26T12:44:22.491Z,0.2
2024-01-26T12:58:22.538Z,0.4
2024-01-26T13:12:22.569Z,0.6
2024-01-26T13:20:23.838Z,0.6
2024-01-26T13:34:23.649Z,0.9
2024-01-26T13:48:23.770Z,0.6
2024-01-26T14:02:23.632Z,0
2024-01-26T14:16:23.656Z,0
2024-01-26T14:30:23.791Z,0.2
2024-01-26T14:44:23.654Z,0
2024-01-26T14:58:23.648Z,0
2024-01-26T15:12:23.636Z,0
2024-01-26T15:26:23.682Z,0
2024-01-26T15:40:24.054Z,0
2024-01-26T15:55:23.706Z,0
2024-01-26T16:09:23.887Z,0
2024-01-26T16:23:23.738Z,0
2024-01-26T16:37:23.727Z,0
2024-01-26T16:51:23.767Z,0.8
2024-01-26T17:04:23.883Z,0.6
2024-01-26T17:17:23.766Z,0
2024-01-26T17:30:23.787Z,0.8
2024-01-26T17:43:23.774Z,0.8
2024-01-26T17:56:23.872Z,0.8
2024-01-26T18:10:24.037Z,0.8
2024-01-26T18:23:23.801Z,0.8
2024-01-26T18:36:23.843Z,0.8
2024-01-26T18:49:23.943Z,0
2024-01-26T19:02:23.893Z,0.8
2024-01-26T19:15:23.881Z,0.8
2024-01-26T19:28:23.844Z,0
2024-01-26T19:41:23.949Z,0
2024-01-26T19:54:23.934Z,0
2024-01-26T20:07:23.867Z,0.2
2024-01-26T20:20:23.902Z,0
2024-01-26T20:33:23.963Z,0.8
2024-01-26T20:46:23.892Z,0.4
2024-01-26T20:59:23.905Z,0
2024-01-26T21:12:23.951Z,0.2
2024-01-26T21:25:23.927Z,0
2024-01-26T21:38:24.846Z,0.8
2024-01-26T21:51:24.020Z,0
2024-01-26T22:04:24.073Z,0
2024-01-26T22:17:24.006Z,0
2024-01-26T22:30:24.046Z,0.6
2024-01-26T22:43:24.020Z,0
2024-01-26T22:56:24.063Z,0
2024-01-26T23:09:24.066Z,0.8
2024-01-26T23:22:24.061Z,0.8
2024-01-26T23:35:24.092Z,0.8
2024-01-26T23:48:24.170Z,0.8
